Pagina principale
METAR-TAF:

METAR-TAF

Aeroporti :

Aeroporto di Amendola

Foggia, Italia

latitudine: 41-32N, longitudine: 015-43E, altezza: 57 m

Osservazione

Il bollettino è stato emesso 30 minuti fa, alle 14:55 UTC
Vento 12 kt da sud-ovest
Temperature 28°C
Umidità 30%
Pressione 1013 hPa
Visibilità 10 km o più
Poco nuvoloso ad un'altezza di 6000 ft

METAR: LIBA 151455Z 23012KT 9999 FEW060 28/09 Q1013 RMK OVC SCT100 BKN150 VIS MIN 9999 WIND THR11 22015KT WIND THR29 /////KT BLU

Ora: 17:25 (15:25 UTC)

Previsione

Il bollettino è stato emesso 1 ora e 25 minuti fa, alle 14:00 UTC
Previsione valida dal 15 alle 15 UTC al 15 alle 24 UTC
Vento 15 kt da ovest/sud-ovest
Visibilità 10 km o più
Poco nuvoloso ad un'altezza di 4000 ft

TAF: LIBA 151400Z 1515/1524 25015KT 9999 FEW040

Osservazioni e previsioni meteorologiche di più di 4000 aeroporti (messaggi METAR e TAF).

Le stazioni disponibili sono rappresentate dai dischi gialli e rossi sulla carta.

Puntare il mouse per vedere il nome della stazione.

Clicca sopra per visualizzare le osservazioni e previsioni meteorologiche.

Per cambiare la mappa : fare clic sui pulsanti verdi con una croce nera per ingrandire, il pulsante verde con un trattino per diminuire, o sulla freccia verde per le mappe adiacenti.


METAR-TAF: